createdAt,value
2019-03-12T00:00:32.430Z,5.50
2019-03-12T00:01:33.565Z,5.62
2019-03-12T00:02:35.001Z,6.15
2019-03-12T00:03:36.437Z,6.20
2019-03-12T00:04:37.580Z,6.17
2019-03-12T00:05:38.726Z,6.33
2019-03-12T00:06:39.897Z,6.78
2019-03-12T00:07:41.045Z,6.50
2019-03-12T00:08:42.185Z,6.83
2019-03-12T00:09:43.565Z,5.62
2019-03-12T00:10:44.717Z,5.72
2019-03-12T00:11:46.123Z,5.35
2019-03-12T00:12:47.269Z,5.05
2019-03-12T00:13:48.410Z,5.53
2019-03-12T00:14:49.546Z,5.65
2019-03-12T00:15:50.691Z,5.55
2019-03-12T00:16:51.831Z,5.62
2019-03-12T00:17:52.961Z,5.80
2019-03-12T00:18:54.461Z,5.50
2019-03-12T00:19:55.898Z,6.75
2019-03-12T00:20:57.049Z,7.05
2019-03-12T00:21:58.193Z,6.12
2019-03-12T00:22:59.329Z,6.85
2019-03-12T00:24:00.509Z,7.10
2019-03-12T00:25:01.650Z,7.15
2019-03-12T00:26:02.796Z,6.28
2019-03-12T00:27:04.243Z,6.78
2019-03-12T00:28:05.377Z,7.20
2019-03-12T00:29:06.534Z,7.00
2019-03-12T00:30:08.973Z,7.35
2019-03-12T00:31:10.126Z,7.03
2019-03-12T00:32:11.541Z,6.97
2019-03-12T00:33:12.676Z,7.08
2019-03-12T00:34:14.071Z,6.58
2019-03-12T00:35:15.518Z,7.05
2019-03-12T00:36:16.737Z,7.45
2019-03-12T00:37:18.235Z,7.17
2019-03-12T00:38:19.369Z,6.33
2019-03-12T00:39:20.501Z,6.37
2019-03-12T00:40:21.733Z,6.20
2019-03-12T00:41:23.178Z,5.97
2019-03-12T00:42:24.317Z,6.40
2019-03-12T00:43:25.741Z,6.00
2019-03-12T00:44:26.885Z,5.83
2019-03-12T00:45:28.111Z,5.03
2019-03-12T00:46:29.682Z,5.53
2019-03-12T00:47:30.834Z,5.75
2019-03-12T00:48:32.330Z,5.72
2019-03-12T00:49:33.513Z,5.55
2019-03-12T00:50:34.650Z,5.85
2019-03-12T00:51:35.813Z,6.15
2019-03-12T00:52:36.989Z,6.05
2019-03-12T00:53:38.122Z,5.67
2019-03-12T00:54:39.315Z,5.42
2019-03-12T00:55:40.549Z,5.95
2019-03-12T00:56:41.698Z,5.28
2019-03-12T00:57:42.840Z,5.90
2019-03-12T00:58:43.977Z,5.65
2019-03-12T00:59:45.112Z,6.08
2019-03-12T01:00:46.245Z,6.05
2019-03-12T01:01:47.398Z,5.42
2019-03-12T01:02:48.538Z,5.12
2019-03-12T01:03:49.836Z,5.95
2019-03-12T01:04:51.079Z,5.30
2019-03-12T01:05:52.213Z,6.62
2019-03-12T01:06:53.650Z,5.20
2019-03-12T01:07:54.799Z,5.90
2019-03-12T01:08:56.227Z,4.83
2019-03-12T01:09:57.377Z,5.12
2019-03-12T01:10:58.797Z,5.20
2019-03-12T01:11:59.946Z,4.78
2019-03-12T01:13:13.081Z,5.33
2019-03-12T01:14:14.216Z,4.42
2019-03-12T01:15:15.609Z,5.42
2019-03-12T01:16:17.056Z,5.12
2019-03-12T01:17:18.190Z,4.42
2019-03-12T01:18:19.384Z,5.08
2019-03-12T01:19:20.961Z,5.10
2019-03-12T01:20:22.144Z,4.87
2019-03-12T01:21:23.422Z,4.95
2019-03-12T01:22:24.557Z,4.70
2019-03-12T01:23:26.011Z,4.90
2019-03-12T01:24:27.447Z,4.75
2019-03-12T01:25:28.585Z,5.22
2019-03-12T01:26:29.737Z,4.62
2019-03-12T01:27:31.163Z,5.37
2019-03-12T01:28:32.297Z,4.70
2019-03-12T01:29:33.432Z,4.12
2019-03-12T01:30:34.578Z,4.45
2019-03-12T01:31:35.723Z,4.72
2019-03-12T01:32:37.124Z,4.90
2019-03-12T01:33:38.520Z,4.80
2019-03-12T01:34:40.010Z,5.83
2019-03-12T01:35:41.146Z,4.53
2019-03-12T01:36:42.530Z,5.12
2019-03-12T01:37:43.669Z,4.92
2019-03-12T01:38:44.808Z,5.05
2019-03-12T01:39:45.941Z,5.30
2019-03-12T01:40:47.691Z,5.17
2019-03-12T01:41:48.862Z,4.92
2019-03-12T01:42:52.327Z,4.92
2019-03-12T01:43:53.376Z,4.85
2019-03-12T01:44:55.039Z,5.37
2019-03-12T01:45:56.564Z,5.42
2019-03-12T01:46:57.714Z,4.80
2019-03-12T01:47:58.844Z,5.08
2019-03-12T01:49:00.240Z,5.10
2019-03-12T01:50:02.778Z,5.58
2019-03-12T01:51:03.937Z,5.00
2019-03-12T01:52:05.085Z,4.67
2019-03-12T01:53:06.220Z,4.85
2019-03-12T01:54:07.379Z,5.03
2019-03-12T01:55:13.012Z,5.42
2019-03-12T01:56:14.150Z,5.53
2019-03-12T01:57:15.297Z,5.08
2019-03-12T01:58:16.714Z,4.90
2019-03-12T01:59:17.849Z,5.40
2019-03-12T02:00:19.284Z,5.70
2019-03-12T02:01:20.425Z,4.70
2019-03-12T02:02:21.569Z,4.53
2019-03-12T02:03:22.993Z,4.92
2019-03-12T02:04:24.134Z,3.90
2019-03-12T02:05:25.564Z,4.22
2019-03-12T02:06:27.054Z,4.80
2019-03-12T02:07:28.281Z,5.33
2019-03-12T02:08:29.936Z,5.37
2019-03-12T02:09:40.722Z,5.03
2019-03-12T02:10:42.228Z,4.37
2019-03-12T02:11:43.616Z,4.08
2019-03-12T02:12:45.219Z,5.22
2019-03-12T02:13:46.772Z,4.67
2019-03-12T02:14:48.514Z,5.03
2019-03-12T02:15:49.909Z,4.42
2019-03-12T02:16:51.321Z,4.97
2019-03-12T02:17:52.750Z,5.15
2019-03-12T02:18:54.154Z,5.50
2019-03-12T02:19:55.554Z,4.67
2019-03-12T02:20:56.976Z,5.33
2019-03-12T02:22:01.370Z,4.50
2019-03-12T02:23:03.005Z,5.30
2019-03-12T02:24:04.422Z,5.10
2019-03-12T02:25:09.061Z,4.45
2019-03-12T02:26:10.493Z,5.22
2019-03-12T02:27:11.901Z,4.67
2019-03-12T02:28:17.978Z,4.15
2019-03-12T02:29:19.731Z,4.70
2019-03-12T02:30:22.415Z,4.65
2019-03-12T02:31:23.824Z,5.08
2019-03-12T02:32:25.520Z,6.25
2019-03-12T02:33:26.930Z,4.03
2019-03-12T02:34:28.677Z,5.05
2019-03-12T02:35:30.096Z,4.60
2019-03-12T02:36:32.004Z,4.80
2019-03-12T02:37:33.399Z,4.45
2019-03-12T02:38:34.833Z,4.53
2019-03-12T02:39:36.080Z,4.83
2019-03-12T02:40:37.280Z,5.25
2019-03-12T02:41:38.427Z,5.20
2019-03-12T02:42:39.874Z,5.00
2019-03-12T02:43:41.297Z,4.58
2019-03-12T02:44:42.827Z,4.92
2019-03-12T02:45:44.271Z,5.08
2019-03-12T02:46:45.409Z,5.15
2019-03-12T02:47:46.556Z,5.10
2019-03-12T02:48:47.694Z,5.60
2019-03-12T02:49:49.239Z,5.40
2019-03-12T02:50:50.489Z,5.15
2019-03-12T02:51:51.882Z,6.08
2019-03-12T02:52:53.326Z,5.37
2019-03-12T02:53:54.466Z,5.22
2019-03-12T02:54:55.610Z,4.78
2019-03-12T02:56:01.408Z,5.65
2019-03-12T02:56:59.976Z,4.87
2019-03-12T02:58:01.125Z,5.00
2019-03-12T02:59:02.591Z,5.20
2019-03-12T03:00:11.871Z,5.92
2019-03-12T03:01:13.009Z,5.97
2019-03-12T03:02:14.215Z,4.92
2019-03-12T03:03:15.438Z,4.72
2019-03-12T03:04:16.597Z,5.10
2019-03-12T03:05:17.828Z,5.33
2019-03-12T03:06:29.977Z,4.53
2019-03-12T03:07:33.563Z,4.95
2019-03-12T03:08:35.004Z,5.03
2019-03-12T03:09:36.143Z,4.50
2019-03-12T03:10:37.566Z,5.15
2019-03-12T03:11:38.718Z,4.55
2019-03-12T03:12:39.890Z,5.08
2019-03-12T03:13:41.027Z,4.78
2019-03-12T03:14:42.165Z,5.12
2019-03-12T03:15:46.785Z,5.10
2019-03-12T03:16:47.999Z,4.37
2019-03-12T03:17:49.242Z,4.65
2019-03-12T03:18:50.419Z,4.55
2019-03-12T03:19:51.561Z,5.15
2019-03-12T03:20:52.709Z,4.45
2019-03-12T03:21:53.846Z,4.75
2019-03-12T03:22:54.995Z,4.62
2019-03-12T03:23:56.408Z,4.60
2019-03-12T03:24:57.834Z,4.85
2019-03-12T03:25:59.009Z,4.85
2019-03-12T03:27:00.224Z,5.08
2019-03-12T03:28:01.375Z,5.42
2019-03-12T03:29:02.518Z,6.62
2019-03-12T03:30:07.457Z,5.83
2019-03-12T03:31:08.617Z,4.92
2019-03-12T03:32:10.167Z,5.53
2019-03-12T03:33:11.339Z,5.25
2019-03-12T03:34:13.534Z,6.47
2019-03-12T03:35:14.771Z,5.78
2019-03-12T03:36:15.976Z,6.37
2019-03-12T03:37:17.159Z,6.78
2019-03-12T03:38:18.405Z,6.25
2019-03-12T03:39:19.534Z,6.03
2019-03-12T03:40:21.278Z,6.47
2019-03-12T03:41:22.417Z,7.25
2019-03-12T03:42:24.340Z,6.87
2019-03-12T03:43:25.924Z,6.45
2019-03-12T03:44:27.057Z,7.00
2019-03-12T03:45:28.193Z,7.83
2019-03-12T03:46:29.738Z,6.92
2019-03-12T03:47:30.870Z,7.10
2019-03-12T03:48:32.054Z,8.08
2019-03-12T03:49:33.245Z,7.47
2019-03-12T03:50:34.387Z,7.97
2019-03-12T03:51:35.531Z,6.58
2019-03-12T03:52:36.861Z,6.85
2019-03-12T03:53:38.006Z,8.33
2019-03-12T03:54:39.141Z,7.12
2019-03-12T03:55:40.634Z,7.62
2019-03-12T03:56:42.170Z,6.40
2019-03-12T03:57:43.309Z,6.72
2019-03-12T03:58:44.463Z,7.28
2019-03-12T03:59:45.703Z,7.12
2019-03-12T04:00:46.838Z,7.25
2019-03-12T04:01:47.975Z,7.25
2019-03-12T04:02:49.110Z,7.08
2019-03-12T04:03:50.254Z,6.37
2019-03-12T04:04:51.649Z,6.72
2019-03-12T04:05:52.789Z,6.60
2019-03-12T04:06:54.228Z,6.47
2019-03-12T04:07:55.378Z,6.33
2019-03-12T04:08:56.686Z,7.28
2019-03-12T04:09:57.822Z,5.85
2019-03-12T04:10:58.958Z,6.67
2019-03-12T04:12:00.406Z,7.17
2019-03-12T04:13:01.863Z,6.60
2019-03-12T04:14:03.132Z,7.25
2019-03-12T04:15:10.703Z,7.22
2019-03-12T04:16:11.837Z,7.55
2019-03-12T04:17:13.229Z,7.17
2019-03-12T04:18:14.675Z,7.40
2019-03-12T04:19:16.110Z,8.18
2019-03-12T04:20:17.446Z,8.13
2019-03-12T04:21:18.790Z,7.90
2019-03-12T04:22:19.964Z,8.15
2019-03-12T04:23:21.230Z,8.45
2019-03-12T04:24:22.366Z,8.38
2019-03-12T04:25:23.505Z,8.18
2019-03-12T04:26:24.634Z,8.18
2019-03-12T04:27:25.910Z,8.80
2019-03-12T04:28:27.533Z,8.15
2019-03-12T04:29:28.685Z,8.65
2019-03-12T04:30:29.914Z,9.03
2019-03-12T04:31:31.053Z,8.75
2019-03-12T04:32:32.205Z,8.03
2019-03-12T04:34:00.247Z,10.18
2019-03-12T04:35:01.411Z,8.80
2019-03-12T04:36:02.618Z,8.75
2019-03-12T04:37:03.804Z,9.15
2019-03-12T04:38:07.046Z,8.53
2019-03-12T04:39:08.285Z,8.68
2019-03-12T04:40:11.031Z,8.90
2019-03-12T04:41:12.410Z,9.15
2019-03-12T04:42:13.839Z,8.83
2019-03-12T04:43:15.228Z,9.65
2019-03-12T04:44:16.634Z,9.40
2019-03-12T04:45:17.773Z,10.68
2019-03-12T04:46:18.906Z,10.95
2019-03-12T04:47:20.046Z,12.40
2019-03-12T04:48:21.206Z,11.93
2019-03-12T04:49:22.355Z,11.45
2019-03-12T04:50:23.586Z,11.18
2019-03-12T04:51:24.912Z,11.95
2019-03-12T04:52:26.058Z,12.37
2019-03-12T04:53:27.204Z,13.65
2019-03-12T04:54:28.351Z,12.18
2019-03-12T04:55:29.766Z,13.83
2019-03-12T04:56:31.206Z,14.87
2019-03-12T04:57:32.345Z,15.55
2019-03-12T04:58:33.769Z,13.43
2019-03-12T04:59:34.930Z,16.23
2019-03-12T05:00:36.445Z,15.95
2019-03-12T05:01:37.592Z,16.02
2019-03-12T05:02:38.978Z,18.32
2019-03-12T05:03:40.110Z,19.23
2019-03-12T05:04:41.262Z,20.60
2019-03-12T05:05:42.402Z,21.73
2019-03-12T05:06:43.538Z,22.27
2019-03-12T05:07:44.694Z,22.02
2019-03-12T05:08:46.145Z,22.73
2019-03-12T05:09:47.289Z,23.05
2019-03-12T05:10:48.424Z,24.27
2019-03-12T05:11:49.558Z,23.00
2019-03-12T05:12:50.974Z,23.65
2019-03-12T05:14:23.676Z,25.72
2019-03-12T05:15:24.812Z,24.65
2019-03-12T05:16:25.947Z,24.27
2019-03-12T05:17:27.095Z,25.45
2019-03-12T05:18:28.472Z,26.50
2019-03-12T05:19:29.628Z,25.08
2019-03-12T05:20:30.805Z,25.20
2019-03-12T05:21:31.941Z,26.15
2019-03-12T05:22:33.085Z,24.85
2019-03-12T05:23:34.219Z,24.67
2019-03-12T05:24:35.369Z,26.48
2019-03-12T05:25:36.501Z,25.65
2019-03-12T05:26:37.632Z,24.95
2019-03-12T05:27:39.019Z,25.20
2019-03-12T05:28:40.154Z,25.65
2019-03-12T05:29:41.307Z,24.35
2019-03-12T05:30:42.576Z,23.85
2019-03-12T05:31:43.714Z,24.10
2019-03-12T05:32:44.974Z,24.67
2019-03-12T05:33:46.447Z,23.55
2019-03-12T05:34:47.595Z,24.05
2019-03-12T05:35:48.757Z,22.77
2019-03-12T05:36:49.897Z,23.02
2019-03-12T05:37:51.041Z,23.62
2019-03-12T05:38:52.181Z,21.52
2019-03-12T05:39:53.340Z,22.87
2019-03-12T05:40:54.582Z,22.55
2019-03-12T05:41:55.722Z,21.55
2019-03-12T05:42:56.861Z,22.90
2019-03-12T05:43:58.795Z,22.17
2019-03-12T05:44:59.990Z,20.80
2019-03-12T05:46:01.438Z,20.68
2019-03-12T05:47:02.578Z,21.82
2019-03-12T05:48:03.970Z,20.75
2019-03-12T05:49:10.319Z,19.50
2019-03-12T05:50:27.196Z,19.30
2019-03-12T05:51:28.337Z,19.30
2019-03-12T05:52:29.475Z,19.57
2019-03-12T05:53:50.736Z,19.73
2019-03-12T05:54:52.067Z,18.57
2019-03-12T05:55:56.087Z,18.77
2019-03-12T05:56:57.509Z,18.50
2019-03-12T05:57:58.649Z,17.62
2019-03-12T05:59:00.031Z,18.42
2019-03-12T06:00:01.477Z,18.23
2019-03-12T06:01:02.623Z,17.25
2019-03-12T06:02:03.918Z,17.60
2019-03-12T06:03:05.050Z,17.42
2019-03-12T06:04:06.459Z,16.37
2019-03-12T06:05:07.955Z,15.58
2019-03-12T06:06:12.226Z,18.10
2019-03-12T06:07:13.708Z,14.90
2019-03-12T06:08:15.198Z,15.20
2019-03-12T06:09:29.449Z,16.67
2019-03-12T06:10:19.801Z,14.68
2019-03-12T06:11:20.956Z,14.80
2019-03-12T06:12:22.094Z,13.13
2019-03-12T06:13:23.233Z,14.07
2019-03-12T06:14:24.386Z,13.25
2019-03-12T06:15:25.545Z,11.70
2019-03-12T06:16:27.123Z,12.43
2019-03-12T06:17:28.557Z,11.80
2019-03-12T06:18:29.699Z,11.25
2019-03-12T06:19:30.838Z,11.48
2019-03-12T06:20:31.987Z,11.63
2019-03-12T06:21:33.126Z,13.15
2019-03-12T06:22:34.541Z,11.10
2019-03-12T06:23:35.680Z,11.60
2019-03-12T06:24:36.829Z,10.75
2019-03-12T06:25:38.072Z,9.73
2019-03-12T06:26:39.201Z,10.45
2019-03-12T06:27:40.344Z,10.23
2019-03-12T06:28:41.850Z,9.98
2019-03-12T06:29:42.991Z,9.98
2019-03-12T06:30:52.011Z,10.45
2019-03-12T06:32:04.070Z,10.23
2019-03-12T06:33:07.369Z,11.97
2019-03-12T06:34:10.749Z,10.32
2019-03-12T06:35:13.106Z,10.32
2019-03-12T06:36:31.037Z,10.23
2019-03-12T06:37:34.073Z,9.88
2019-03-12T06:38:42.713Z,11.88
2019-03-12T06:39:48.552Z,9.85
2019-03-12T06:40:57.381Z,16.77
2019-03-12T06:42:07.974Z,14.43
2019-03-12T06:43:10.934Z,11.25
2019-03-12T06:44:13.983Z,10.28
2019-03-12T06:45:23.078Z,9.88
2019-03-12T06:46:26.397Z,10.32
2019-03-12T06:47:35.035Z,10.45
2019-03-12T06:48:53.106Z,10.53
2019-03-12T06:50:02.455Z,9.88
2019-03-12T06:51:08.119Z,10.32
2019-03-12T06:52:29.214Z,10.90
2019-03-12T06:53:48.965Z,10.28
2019-03-12T06:55:01.068Z,10.08
2019-03-12T06:56:15.694Z,10.30
2019-03-12T06:57:18.733Z,10.13
2019-03-12T06:58:27.912Z,10.20
2019-03-12T06:59:42.720Z,10.38
2019-03-12T07:00:51.361Z,9.78
2019-03-12T07:02:10.984Z,9.68
2019-03-12T07:03:16.552Z,9.00
2019-03-12T07:04:36.271Z,9.10
2019-03-12T07:05:42.570Z,10.40
2019-03-12T07:07:02.369Z,9.30
2019-03-12T07:08:08.279Z,9.65
2019-03-12T07:09:28.007Z,8.83
2019-03-12T07:10:33.634Z,9.95
2019-03-12T07:11:39.604Z,10.23
2019-03-12T07:12:43.054Z,9.08
2019-03-12T07:13:46.441Z,9.65
2019-03-12T07:15:05.927Z,9.38
2019-03-12T07:16:14.814Z,9.08
2019-03-12T07:17:18.213Z,10.05
2019-03-12T07:18:27.201Z,9.00
2019-03-12T07:19:35.825Z,9.55
2019-03-12T07:20:56.037Z,9.58
2019-03-12T07:21:59.209Z,6.37
2019-03-12T07:23:17.542Z,8.73
2019-03-12T07:24:20.593Z,9.68
2019-03-12T07:25:23.885Z,9.30
2019-03-12T07:26:29.570Z,9.33
2019-03-12T07:27:36.082Z,9.85
2019-03-12T07:28:57.505Z,10.40
2019-03-12T07:30:00.982Z,9.35
2019-03-12T07:31:10.706Z,9.00
2019-03-12T07:32:16.890Z,9.13
2019-03-12T07:33:25.788Z,9.55
2019-03-12T07:34:36.628Z,9.80
2019-03-12T07:35:39.317Z,9.40
2019-03-12T07:36:45.130Z,8.98
2019-03-12T07:38:04.296Z,11.18
2019-03-12T07:39:13.976Z,9.30
2019-03-12T07:40:32.125Z,10.78
2019-03-12T07:41:41.067Z,10.53
2019-03-12T07:43:01.269Z,9.50
2019-03-12T07:44:13.395Z,8.88
2019-03-12T07:45:19.208Z,9.73
2019-03-12T07:46:28.075Z,8.80
2019-03-12T07:47:47.893Z,10.95
2019-03-12T07:48:53.845Z,8.58
2019-03-12T07:50:08.553Z,9.15
2019-03-12T07:51:11.610Z,9.58
2019-03-12T07:52:16.610Z,8.33
2019-03-12T07:53:19.654Z,9.23
2019-03-12T07:54:24.645Z,9.68
2019-03-12T07:55:44.869Z,8.70
2019-03-12T07:57:04.569Z,8.95
2019-03-12T07:58:07.610Z,8.93
2019-03-12T07:59:13.197Z,8.25
2019-03-12T08:00:28.326Z,8.28
2019-03-12T08:01:43.757Z,8.55
2019-03-12T08:02:46.798Z,8.05
2019-03-12T08:04:07.963Z,9.08
2019-03-12T08:05:14.527Z,7.95
2019-03-12T08:06:20.788Z,8.55
2019-03-12T08:07:24.164Z,8.80
2019-03-12T08:08:43.481Z,8.43
2019-03-12T08:10:02.958Z,8.60
2019-03-12T08:11:08.770Z,7.83
2019-03-12T08:12:20.565Z,8.38
2019-03-12T08:13:40.634Z,8.35
2019-03-12T08:14:52.649Z,6.55
2019-03-12T08:15:56.059Z,8.03
2019-03-12T08:17:15.689Z,7.40
2019-03-12T08:18:27.714Z,6.90
2019-03-12T08:19:42.802Z,7.67
2019-03-12T08:20:45.846Z,8.33
2019-03-12T08:21:49.932Z,8.13
2019-03-12T08:22:53.046Z,6.80
2019-03-12T08:24:13.654Z,6.97
2019-03-12T08:25:18.382Z,7.47
2019-03-12T08:26:24.266Z,8.10
2019-03-12T08:27:44.030Z,7.20
2019-03-12T08:28:49.622Z,6.75
2019-03-12T08:30:09.570Z,7.50
2019-03-12T08:31:12.614Z,7.78
2019-03-12T08:32:27.508Z,7.47
2019-03-12T08:33:50.945Z,7.50
2019-03-12T08:35:07.332Z,6.83
2019-03-12T08:36:22.610Z,7.92
2019-03-12T08:37:26.007Z,7.60
2019-03-12T08:38:29.032Z,7.28
2019-03-12T08:39:46.967Z,7.20
2019-03-12T08:41:06.208Z,6.85
2019-03-12T08:42:15.017Z,6.65
2019-03-12T08:43:18.054Z,6.28
2019-03-12T08:44:21.087Z,6.20
2019-03-12T08:45:33.267Z,6.50
2019-03-12T08:46:52.549Z,5.75
2019-03-12T08:48:13.048Z,5.45
2019-03-12T08:49:16.465Z,5.62
2019-03-12T08:50:19.493Z,5.42
2019-03-12T08:51:25.609Z,5.25
2019-03-12T08:52:31.413Z,5.03
2019-03-12T08:53:37.006Z,5.22
2019-03-12T08:54:54.181Z,5.08
2019-03-12T08:55:54.378Z,4.55
2019-03-12T08:56:59.983Z,5.37
2019-03-12T08:58:19.751Z,5.00
2019-03-12T08:59:26.000Z,4.90
2019-03-12T09:00:35.341Z,4.83
2019-03-12T09:01:38.880Z,4.53
2019-03-12T09:02:57.006Z,5.17
2019-03-12T09:04:00.055Z,4.85
2019-03-12T09:05:05.666Z,5.10
2019-03-12T09:06:19.886Z,5.50
2019-03-12T09:07:28.720Z,4.22
2019-03-12T09:08:43.851Z,4.78
2019-03-12T09:10:03.589Z,4.85
2019-03-12T09:11:09.409Z,4.53
2019-03-12T09:12:21.453Z,4.50
2019-03-12T09:13:24.905Z,3.62
2019-03-12T09:14:30.754Z,3.95
2019-03-12T09:15:50.553Z,4.60
2019-03-12T09:17:03.100Z,3.50
2019-03-12T09:18:14.869Z,4.55
2019-03-12T09:19:33.006Z,4.45
2019-03-12T09:20:54.008Z,4.87
2019-03-12T09:23:20.271Z,4.47
2019-03-12T09:24:39.999Z,4.03
2019-03-12T09:25:45.985Z,3.70
2019-03-12T09:27:05.746Z,3.95
2019-03-12T09:28:11.648Z,3.72
2019-03-12T09:29:14.698Z,3.80
2019-03-12T09:30:20.517Z,4.12
2019-03-12T09:31:29.555Z,4.33
2019-03-12T09:32:38.669Z,3.40
2019-03-12T09:33:47.879Z,4.92
2019-03-12T09:34:53.626Z,3.70
2019-03-12T09:36:02.530Z,3.87
2019-03-12T09:37:13.027Z,2.58
2019-03-12T09:38:25.102Z,3.87
2019-03-12T09:39:44.800Z,3.58
2019-03-12T09:40:50.622Z,4.65
2019-03-12T09:42:12.415Z,3.37
2019-03-12T09:43:21.050Z,3.50
2019-03-12T09:44:40.481Z,3.30
2019-03-12T09:45:49.225Z,2.50
2019-03-12T09:47:08.779Z,3.17
2019-03-12T09:48:11.878Z,3.60
2019-03-12T09:49:15.209Z,2.72
2019-03-12T09:50:21.014Z,4.40
2019-03-12T09:51:33.262Z,3.60
2019-03-12T09:52:36.309Z,3.37
2019-03-12T09:53:45.464Z,3.60
2019-03-12T09:54:48.502Z,3.10
2019-03-12T09:55:51.916Z,3.37
2019-03-12T09:56:54.954Z,3.10
2019-03-12T09:57:58.010Z,4.40
2019-03-12T09:59:01.062Z,3.80
2019-03-12T10:00:16.103Z,2.95
2019-03-12T10:01:16.511Z,3.25
2019-03-12T10:02:19.586Z,3.65
2019-03-12T10:03:25.704Z,2.90
2019-03-12T10:04:40.877Z,3.05
2019-03-12T10:06:00.556Z,3.25
2019-03-12T10:07:09.173Z,3.42
2019-03-12T10:08:15.333Z,3.40
2019-03-12T10:09:34.732Z,3.30
2019-03-12T10:10:46.391Z,2.95
2019-03-12T10:11:49.540Z,3.58
2019-03-12T10:13:01.642Z,3.30
2019-03-12T10:14:04.679Z,4.00
2019-03-12T10:15:14.898Z,4.10
2019-03-12T10:16:33.028Z,4.28
2019-03-12T10:17:48.046Z,2.80
2019-03-12T10:19:00.166Z,3.15
2019-03-12T10:20:03.209Z,2.50
2019-03-12T10:21:22.694Z,2.67
2019-03-12T10:22:25.738Z,2.60
2019-03-12T10:23:31.622Z,3.42
2019-03-12T10:24:54.877Z,2.87
2019-03-12T10:26:06.916Z,2.72
2019-03-12T10:27:16.054Z,3.20
2019-03-12T10:28:35.509Z,3.33
2019-03-12T10:29:44.161Z,3.30
2019-03-12T10:30:47.206Z,2.80
2019-03-12T10:31:56.275Z,2.70
2019-03-12T10:32:59.329Z,2.72
2019-03-12T10:34:05.155Z,2.80
2019-03-12T10:35:08.194Z,2.87
2019-03-12T10:36:11.301Z,2.52
2019-03-12T10:37:17.676Z,2.98
2019-03-12T10:38:58.645Z,2.27
2019-03-12T10:40:02.896Z,2.72
2019-03-12T10:41:06.064Z,2.77
2019-03-12T10:42:09.335Z,2.50
2019-03-12T10:43:12.466Z,2.95
2019-03-12T10:44:15.548Z,3.42
2019-03-12T10:45:27.649Z,2.83
2019-03-12T10:46:30.681Z,8.83
2019-03-12T10:47:34.152Z,9.13
2019-03-12T10:48:35.305Z,10.80
2019-03-12T10:49:37.727Z,4.05
2019-03-12T10:50:39.373Z,4.20
2019-03-12T10:51:40.505Z,4.65
2019-03-12T10:52:41.653Z,6.00
2019-03-12T10:53:42.804Z,4.78
2019-03-12T10:54:44.310Z,10.78
2019-03-12T10:55:45.562Z,4.33
2019-03-12T10:56:46.688Z,6.03
2019-03-12T10:57:47.850Z,6.97
2019-03-12T10:58:49.265Z,4.55
2019-03-12T10:59:50.402Z,4.22
2019-03-12T11:00:51.833Z,3.60
2019-03-12T11:01:52.970Z,6.03
2019-03-12T11:02:54.393Z,13.13
2019-03-12T11:03:56.003Z,3.40
2019-03-12T11:04:57.246Z,3.25
2019-03-12T11:05:58.382Z,4.50
2019-03-12T11:06:59.519Z,3.42
2019-03-12T11:08:01.289Z,4.28
2019-03-12T11:09:04.628Z,4.33
2019-03-12T11:10:14.128Z,2.87
2019-03-12T11:11:15.257Z,3.60
2019-03-12T11:12:16.420Z,3.83
2019-03-12T11:13:17.556Z,3.80
2019-03-12T11:14:19.052Z,6.17
2019-03-12T11:15:20.490Z,2.75
2019-03-12T11:16:21.633Z,4.80
2019-03-12T11:17:22.901Z,5.00
2019-03-12T11:18:24.107Z,5.95
2019-03-12T11:19:25.245Z,3.70
2019-03-12T11:20:26.574Z,3.75
2019-03-12T11:21:27.705Z,3.10
2019-03-12T11:22:28.840Z,7.85
2019-03-12T11:23:29.989Z,4.00
2019-03-12T11:24:31.131Z,4.25
2019-03-12T11:25:32.265Z,3.33
2019-03-12T11:26:33.681Z,4.37
2019-03-12T11:27:34.818Z,3.47
2019-03-12T11:28:36.065Z,4.55
2019-03-12T11:29:37.206Z,3.55
2019-03-12T11:30:38.829Z,3.30
2019-03-12T11:31:39.976Z,4.67
2019-03-12T11:32:41.210Z,3.77
2019-03-12T11:33:42.713Z,3.40
2019-03-12T11:34:44.267Z,5.50
2019-03-12T11:35:45.406Z,2.62
2019-03-12T11:36:46.554Z,4.25
2019-03-12T11:37:47.932Z,3.72
2019-03-12T11:38:49.077Z,2.67
2019-03-12T11:39:50.827Z,3.30
2019-03-12T11:40:52.407Z,5.55
2019-03-12T11:41:53.632Z,3.47
2019-03-12T11:42:55.113Z,2.60
2019-03-12T11:43:56.373Z,3.22
2019-03-12T11:44:57.849Z,3.37
2019-03-12T11:45:59.101Z,2.60
2019-03-12T11:47:00.321Z,3.25
2019-03-12T11:48:01.466Z,2.70
2019-03-12T11:49:03.213Z,13.03
2019-03-12T11:50:14.027Z,4.15
2019-03-12T11:51:15.517Z,2.92
2019-03-12T11:52:17.041Z,3.30
2019-03-12T11:53:18.186Z,2.98
2019-03-12T11:54:19.698Z,2.83
2019-03-12T11:55:21.331Z,3.42
2019-03-12T11:56:22.801Z,2.65
2019-03-12T11:57:24.118Z,2.72
2019-03-12T11:58:25.585Z,2.40
2019-03-12T11:59:28.785Z,2.80
2019-03-12T12:00:31.840Z,2.67
2019-03-12T12:01:33.387Z,2.15
2019-03-12T12:02:34.625Z,2.45
2019-03-12T12:03:36.063Z,2.98
2019-03-12T12:04:37.202Z,2.20
2019-03-12T12:05:38.342Z,1.98
2019-03-12T12:06:42.536Z,2.40
2019-03-12T12:07:42.598Z,2.40
2019-03-12T12:08:44.063Z,2.45
2019-03-12T12:09:45.722Z,2.20
2019-03-12T12:10:47.269Z,2.35
2019-03-12T12:11:48.533Z,2.37
2019-03-12T12:12:50.619Z,2.45
2019-03-12T12:13:51.826Z,2.50
2019-03-12T12:14:52.969Z,2.20
2019-03-12T12:15:54.110Z,2.37
2019-03-12T12:16:55.593Z,2.80
2019-03-12T12:17:56.736Z,3.22
2019-03-12T12:18:57.881Z,2.27
2019-03-12T12:19:59.021Z,2.60
2019-03-12T12:21:00.162Z,2.90
2019-03-12T12:22:01.297Z,2.47
2019-03-12T12:23:02.434Z,3.12
2019-03-12T12:24:03.583Z,2.60
2019-03-12T12:25:08.526Z,2.80
2019-03-12T12:26:09.657Z,2.40
2019-03-12T12:27:10.802Z,2.77
2019-03-12T12:28:12.187Z,2.55
2019-03-12T12:29:13.342Z,1.82
2019-03-12T12:30:16.790Z,2.65
2019-03-12T12:31:17.930Z,2.30
2019-03-12T12:32:19.070Z,3.33
2019-03-12T12:33:20.211Z,2.35
2019-03-12T12:34:21.360Z,2.40
2019-03-12T12:35:22.505Z,3.35
2019-03-12T12:36:23.642Z,2.87
2019-03-12T12:37:24.906Z,3.30
2019-03-12T12:38:26.037Z,2.25
2019-03-12T12:39:27.183Z,3.40
2019-03-12T12:40:28.626Z,2.33
2019-03-12T12:41:29.779Z,2.30
2019-03-12T12:42:31.153Z,2.30
2019-03-12T12:43:32.641Z,2.65
2019-03-12T12:44:33.804Z,2.37
2019-03-12T12:45:38.333Z,2.27
2019-03-12T12:46:39.821Z,2.42
2019-03-12T12:47:40.961Z,2.70
2019-03-12T12:48:42.122Z,2.50
2019-03-12T12:49:43.270Z,3.02
2019-03-12T12:50:44.406Z,2.58
2019-03-12T12:51:45.582Z,2.40
2019-03-12T12:52:46.714Z,2.60
2019-03-12T12:53:47.858Z,2.35
2019-03-12T12:54:48.997Z,2.75
2019-03-12T12:55:50.140Z,2.30
2019-03-12T12:56:51.298Z,2.50
2019-03-12T12:57:52.519Z,2.83
2019-03-12T12:58:53.653Z,2.20
2019-03-12T12:59:54.958Z,2.70
2019-03-12T13:00:56.184Z,2.17
2019-03-12T13:01:57.371Z,2.65
2019-03-12T13:02:58.590Z,2.87
2019-03-12T13:03:59.830Z,1.92
2019-03-12T13:05:01.249Z,2.92
2019-03-12T13:06:02.440Z,2.33
2019-03-12T13:07:03.578Z,2.85
2019-03-12T13:08:04.749Z,2.47
2019-03-12T13:09:06.167Z,2.50
2019-03-12T13:10:16.388Z,2.85
2019-03-12T13:11:17.534Z,3.05
2019-03-12T13:12:18.690Z,3.08
2019-03-12T13:13:19.834Z,2.55
2019-03-12T13:14:21.000Z,2.77
2019-03-12T13:15:22.336Z,3.10
2019-03-12T13:16:25.446Z,3.33
2019-03-12T13:17:26.515Z,3.12
2019-03-12T13:18:27.950Z,2.87
2019-03-12T13:19:29.122Z,3.02
2019-03-12T13:20:30.646Z,2.85
2019-03-12T13:21:32.066Z,3.22
2019-03-12T13:22:33.219Z,3.47
2019-03-12T13:23:36.191Z,3.47
2019-03-12T13:24:37.416Z,2.40
2019-03-12T13:25:38.771Z,2.52
2019-03-12T13:26:40.174Z,2.40
2019-03-12T13:27:42.685Z,2.75
2019-03-12T13:28:45.151Z,2.52
2019-03-12T13:29:46.676Z,2.47
2019-03-12T13:30:48.107Z,3.45
2019-03-12T13:31:49.647Z,3.42
2019-03-12T13:32:51.189Z,3.02
2019-03-12T13:33:52.329Z,2.47
2019-03-12T13:34:53.473Z,2.60
2019-03-12T13:35:54.631Z,2.87
2019-03-12T13:36:56.182Z,2.90
2019-03-12T13:37:57.522Z,3.27
2019-03-12T13:38:58.757Z,4.20
2019-03-12T13:40:01.116Z,3.08
2019-03-12T13:41:03.526Z,2.80
2019-03-12T13:42:04.968Z,2.72
2019-03-12T13:43:06.411Z,2.85
2019-03-12T13:44:08.065Z,3.62
2019-03-12T13:45:15.053Z,2.72
2019-03-12T13:46:17.043Z,2.95
2019-03-12T13:47:18.565Z,3.02
2019-03-12T13:48:19.881Z,3.17
2019-03-12T13:49:21.180Z,2.85
2019-03-12T13:50:24.494Z,2.92
2019-03-12T13:51:26.021Z,3.30
2019-03-12T13:52:27.192Z,3.45
2019-03-12T13:53:28.444Z,3.67
2019-03-12T13:54:29.664Z,5.78
2019-03-12T13:55:31.166Z,3.83
2019-03-12T13:56:32.309Z,4.03
2019-03-12T13:57:33.550Z,5.33
2019-03-12T13:58:34.978Z,3.42
2019-03-12T13:59:36.121Z,3.70
2019-03-12T14:00:37.275Z,3.47
2019-03-12T14:01:38.812Z,3.37
2019-03-12T14:02:40.236Z,2.72
2019-03-12T14:03:41.380Z,2.70
2019-03-12T14:04:42.525Z,2.85
2019-03-12T14:05:43.940Z,2.83
2019-03-12T14:06:45.365Z,2.33
2019-03-12T14:07:46.705Z,3.00
2019-03-12T14:08:47.846Z,2.40